Crandall, South Dakota
Current Conditions -  °F | °C
As of 10:53 AM on Friday 19 Dec 2014 (Local Time) from KABR Reporting Station
Haze Haze  
Wind Chill: 18°   Ceiling: 400
Heat Index: 29°   Visibility: 4mi
Dew Point: 26°   Wind: 14mph
Humidity: 89%   Direction: 180°S
Pressure: 30.05"   Gusts: NA
Location:  45.1644°N, 98.0134°W
Report Text: KABR 191653Z AUTO 18012KT 4SM BR OVC004 M02/M03 A3005 RMK AO2 SLP194 T10171033
Loading
Personal Weather Stations






























Interactive Weather Map New forecast layout! Learn more

10-Day Weather Forecast

Advertisements
Track Severe Weather on mobile